createdAt,value
2018-09-19T00:00:11.333Z,11.90
2018-09-19T00:01:11.281Z,12.20
2018-09-19T00:02:11.233Z,11.30
2018-09-19T00:03:11.191Z,12.40
2018-09-19T00:04:11.190Z,14.10
2018-09-19T00:05:11.105Z,11.60
2018-09-19T00:06:11.071Z,13.10
2018-09-19T00:07:11.019Z,13.60
2018-09-19T00:08:10.975Z,13.70
2018-09-19T00:09:10.937Z,12.30
2018-09-19T00:10:10.889Z,11.30
2018-09-19T00:11:10.846Z,12.60
2018-09-19T00:12:10.804Z,10.90
2018-09-19T00:13:10.762Z,12.30
2018-09-19T00:14:10.722Z,11.80
2018-09-19T00:15:10.675Z,14.70
2018-09-19T00:16:10.634Z,14.60
2018-09-19T00:17:10.596Z,13.20
2018-09-19T00:18:10.550Z,13.20
2018-09-19T00:19:10.504Z,11.50
2018-09-19T00:20:10.491Z,11.00
2018-09-19T00:21:10.421Z,14.80
2018-09-19T00:22:10.377Z,12.40
2018-09-19T00:23:10.357Z,11.20
2018-09-19T00:24:10.294Z,11.60
2018-09-19T00:25:10.258Z,17.50
2018-09-19T00:26:10.205Z,15.30
2018-09-19T00:27:10.166Z,13.10
2018-09-19T00:28:10.121Z,12.90
2018-09-19T00:29:10.080Z,14.40
2018-09-19T00:30:10.044Z,14.30
2018-09-19T00:31:09.994Z,12.90
2018-09-19T00:32:09.951Z,14.00
2018-09-19T00:33:09.910Z,16.20
2018-09-19T00:34:09.862Z,14.90
2018-09-19T00:35:09.821Z,13.70
2018-09-19T00:36:09.790Z,12.60
2018-09-19T00:37:09.735Z,15.30
2018-09-19T00:38:09.707Z,15.20
2018-09-19T00:39:09.654Z,14.50
2018-09-19T00:40:09.613Z,14.80
2018-09-19T00:41:09.565Z,14.70
2018-09-19T00:42:09.520Z,12.10
2018-09-19T00:43:09.479Z,10.80
2018-09-19T00:44:09.437Z,12.80
2018-09-19T00:45:09.403Z,13.40
2018-09-19T00:46:09.359Z,12.20
2018-09-19T00:47:09.310Z,11.00
2018-09-19T00:48:09.272Z,14.70
2018-09-19T00:49:09.224Z,14.80
2018-09-19T00:50:09.192Z,14.30
2018-09-19T00:51:09.141Z,14.80
2018-09-19T00:52:09.095Z,15.30
2018-09-19T00:53:09.048Z,15.20
2018-09-19T00:54:09.010Z,12.60
2018-09-19T00:55:08.964Z,12.30
2018-09-19T00:56:08.920Z,12.60
2018-09-19T00:57:08.882Z,13.30
2018-09-19T00:58:08.834Z,19.40
2018-09-19T00:59:08.791Z,15.00
2018-09-19T01:00:08.757Z,16.90
2018-09-19T01:01:08.707Z,14.60
2018-09-19T01:02:08.661Z,13.60
2018-09-19T01:03:08.621Z,16.10
2018-09-19T01:04:08.579Z,15.60
2018-09-19T01:05:08.535Z,14.20
2018-09-19T01:06:08.491Z,16.20
2018-09-19T01:07:08.446Z,13.40
2018-09-19T01:08:08.408Z,14.80
2018-09-19T01:09:08.361Z,14.80
2018-09-19T01:10:08.324Z,15.10
2018-09-19T01:11:08.293Z,12.60
2018-09-19T01:12:08.237Z,14.30
2018-09-19T01:13:08.207Z,12.50
2018-09-19T01:14:08.148Z,14.10
2018-09-19T01:15:08.105Z,16.40
2018-09-19T01:16:08.060Z,14.10
2018-09-19T01:17:08.018Z,11.70
2018-09-19T01:18:07.984Z,13.60
2018-09-19T01:19:07.930Z,16.40
2018-09-19T01:20:07.894Z,15.30
2018-09-19T01:21:07.848Z,12.90
2018-09-19T01:22:07.804Z,14.30
2018-09-19T01:23:07.757Z,14.90
2018-09-19T01:24:07.717Z,11.30
2018-09-19T01:25:07.676Z,16.30
2018-09-19T01:26:07.628Z,15.50
2018-09-19T01:27:07.585Z,14.10
2018-09-19T01:28:07.545Z,15.30
2018-09-19T01:29:07.508Z,14.20
2018-09-19T01:30:07.461Z,12.30
2018-09-19T01:31:07.415Z,14.00
2018-09-19T01:32:07.372Z,13.80
2018-09-19T01:33:07.329Z,15.10
2018-09-19T01:34:07.297Z,17.50
2018-09-19T01:35:07.241Z,14.60
2018-09-19T01:36:07.199Z,13.20
2018-09-19T01:37:07.155Z,13.50
2018-09-19T01:38:07.115Z,18.50
2018-09-19T01:39:07.069Z,13.40
2018-09-19T01:40:07.027Z,12.60
2018-09-19T01:41:06.993Z,15.50
2018-09-19T01:42:06.936Z,17.20
2018-09-19T01:43:06.894Z,14.90
2018-09-19T01:44:06.853Z,17.90
2018-09-19T01:45:06.815Z,11.40
2018-09-19T01:46:06.768Z,12.50
2018-09-19T01:47:06.725Z,14.80
2018-09-19T01:48:06.681Z,12.20
2018-09-19T01:49:06.648Z,15.20
2018-09-19T01:50:06.593Z,14.90
2018-09-19T01:51:06.550Z,14.60
2018-09-19T01:52:06.510Z,13.70
2018-09-19T01:53:06.464Z,13.40
2018-09-19T01:54:06.429Z,12.80
2018-09-19T01:55:06.379Z,17.80
2018-09-19T01:56:06.331Z,14.40
2018-09-19T01:57:06.288Z,13.90
2018-09-19T01:58:06.245Z,17.30
2018-09-19T01:59:06.202Z,12.20
2018-09-19T02:00:06.159Z,14.60
2018-09-19T02:01:06.115Z,16.40
2018-09-19T02:02:06.072Z,14.60
2018-09-19T02:03:06.033Z,12.60
2018-09-19T02:04:05.987Z,16.10
2018-09-19T02:05:05.993Z,12.20
2018-09-19T02:06:05.899Z,13.40
2018-09-19T02:07:05.859Z,14.50
2018-09-19T02:08:05.816Z,15.60
2018-09-19T02:09:05.775Z,15.40
2018-09-19T02:10:05.728Z,16.60
2018-09-19T02:11:05.683Z,15.80
2018-09-19T02:12:05.653Z,13.90
2018-09-19T02:13:05.608Z,19.30
2018-09-19T02:14:05.552Z,16.30
2018-09-19T02:15:05.511Z,17.70
2018-09-19T02:16:05.473Z,17.40
2018-09-19T02:17:05.426Z,17.50
2018-09-19T02:18:05.378Z,15.00
2018-09-19T02:19:05.336Z,14.70
2018-09-19T02:20:05.295Z,15.50
2018-09-19T02:21:05.258Z,17.30
2018-09-19T02:22:05.204Z,18.00
2018-09-19T02:23:05.165Z,15.50
2018-09-19T02:24:05.119Z,15.00
2018-09-19T02:25:05.079Z,22.00
2018-09-19T02:26:05.034Z,13.80
2018-09-19T02:27:04.999Z,14.00
2018-09-19T02:28:04.943Z,17.00
2018-09-19T02:29:04.907Z,16.40
2018-09-19T02:30:04.857Z,16.80
2018-09-19T02:31:04.817Z,16.20
2018-09-19T02:32:04.783Z,16.50
2018-09-19T02:33:04.731Z,15.20
2018-09-19T02:34:04.683Z,17.60
2018-09-19T02:35:04.645Z,18.40
2018-09-19T02:36:04.605Z,15.40
2018-09-19T02:37:04.574Z,16.00
2018-09-19T02:38:04.513Z,17.40
2018-09-19T02:39:04.474Z,14.40
2018-09-19T02:40:04.425Z,17.50
2018-09-19T02:41:04.381Z,15.50
2018-09-19T02:42:04.339Z,17.50
2018-09-19T02:43:04.309Z,17.70
2018-09-19T02:44:04.251Z,17.80
2018-09-19T02:45:04.227Z,17.60
2018-09-19T02:46:04.164Z,16.40
2018-09-19T02:47:04.123Z,17.50
2018-09-19T02:48:04.079Z,16.80
2018-09-19T02:49:04.036Z,16.00
2018-09-19T02:50:03.989Z,19.50
2018-09-19T02:51:03.947Z,17.60
2018-09-19T02:52:03.904Z,19.90
2018-09-19T02:53:03.861Z,15.40
2018-09-19T02:54:03.818Z,16.60
2018-09-19T02:55:03.775Z,18.00
2018-09-19T02:56:03.730Z,16.00
2018-09-19T02:57:03.687Z,17.40
2018-09-19T02:58:03.641Z,16.20
2018-09-19T02:59:03.597Z,21.20
2018-09-19T03:00:03.554Z,16.90
2018-09-19T03:01:03.510Z,19.30
2018-09-19T03:02:03.467Z,16.50
2018-09-19T03:03:03.425Z,18.90
2018-09-19T03:04:03.381Z,17.10
2018-09-19T03:05:03.352Z,16.70
2018-09-19T03:06:03.293Z,18.20
2018-09-19T03:07:03.250Z,15.70
2018-09-19T03:08:03.211Z,16.30
2018-09-19T03:09:03.172Z,14.60
2018-09-19T03:10:03.119Z,19.20
2018-09-19T03:11:03.075Z,23.40
2018-09-19T03:12:03.030Z,15.70
2018-09-19T03:13:02.990Z,18.40
2018-09-19T03:14:02.946Z,15.60
2018-09-19T03:15:02.900Z,17.90
2018-09-19T03:16:02.858Z,16.30
2018-09-19T03:17:02.848Z,13.10
2018-09-19T03:18:02.778Z,20.40
2018-09-19T03:19:02.745Z,17.20
2018-09-19T03:20:02.698Z,15.10
2018-09-19T03:21:02.641Z,18.70
2018-09-19T03:22:02.610Z,16.70
2018-09-19T03:23:02.562Z,15.70
2018-09-19T03:24:02.539Z,19.00
2018-09-19T03:25:02.473Z,16.90
2018-09-19T03:26:02.420Z,16.70
2018-09-19T03:27:02.386Z,17.50
2018-09-19T03:28:02.334Z,16.40
2018-09-19T03:29:02.315Z,16.30
2018-09-19T03:30:02.249Z,15.50
2018-09-19T03:31:02.207Z,14.70
2018-09-19T03:32:02.175Z,13.90
2018-09-19T03:33:02.118Z,15.60
2018-09-19T03:34:02.074Z,15.40
2018-09-19T03:35:02.028Z,17.60
2018-09-19T03:36:01.991Z,14.60
2018-09-19T03:37:01.964Z,13.20
2018-09-19T03:38:01.903Z,13.70
2018-09-19T03:39:01.853Z,15.40
2018-09-19T03:40:01.812Z,15.10
2018-09-19T03:41:01.770Z,16.10
2018-09-19T03:42:01.725Z,18.40
2018-09-19T03:43:01.685Z,17.20
2018-09-19T03:44:01.638Z,17.80
2018-09-19T03:45:01.594Z,16.90
2018-09-19T03:46:01.554Z,16.40
2018-09-19T03:47:01.510Z,19.90
2018-09-19T03:48:01.466Z,19.60
2018-09-19T03:49:01.423Z,22.10
2018-09-19T03:50:01.374Z,18.10
2018-09-19T03:51:01.330Z,21.70
2018-09-19T03:52:01.288Z,17.20
2018-09-19T03:53:01.247Z,16.80
2018-09-19T03:54:01.197Z,15.80
2018-09-19T03:55:01.156Z,17.90
2018-09-19T03:56:01.113Z,18.90
2018-09-19T03:57:01.072Z,16.20
2018-09-19T03:58:01.039Z,16.60
2018-09-19T03:59:00.986Z,18.80
2018-09-19T04:00:00.951Z,14.70
2018-09-19T04:01:00.893Z,18.70
2018-09-19T04:02:00.850Z,17.20
2018-09-19T04:03:00.808Z,20.60
2018-09-19T04:04:00.770Z,18.70
2018-09-19T04:05:00.720Z,18.40
2018-09-19T04:06:00.682Z,16.10
2018-09-19T04:07:00.634Z,18.50
2018-09-19T04:08:00.616Z,20.20
2018-09-19T04:09:00.542Z,19.10
2018-09-19T04:10:00.500Z,18.40
2018-09-19T04:11:00.458Z,15.40
2018-09-19T04:12:00.414Z,16.40
2018-09-19T04:13:00.371Z,19.10
2018-09-19T04:14:00.326Z,17.70
2018-09-19T04:15:00.298Z,15.10
2018-09-19T04:16:00.238Z,16.30
2018-09-19T04:17:00.194Z,16.60
2018-09-19T04:18:00.152Z,19.00
2018-09-19T04:19:00.110Z,18.50
2018-09-19T04:20:00.063Z,17.00
2018-09-19T04:21:00.026Z,15.40
2018-09-19T04:21:59.975Z,17.90
2018-09-19T04:22:59.929Z,18.50
2018-09-19T04:23:59.890Z,15.30
2018-09-19T04:24:59.852Z,16.20
2018-09-19T04:25:59.798Z,14.40
2018-09-19T04:26:59.756Z,13.70
2018-09-19T04:27:59.714Z,15.60
2018-09-19T04:28:59.668Z,17.60
2018-09-19T04:29:59.625Z,23.10
2018-09-19T04:30:59.582Z,18.40
2018-09-19T04:31:59.545Z,16.20
2018-09-19T04:32:59.494Z,15.90
2018-09-19T04:33:59.446Z,16.90
2018-09-19T04:34:59.406Z,15.30
2018-09-19T04:35:59.369Z,15.50
2018-09-19T04:36:59.319Z,13.70
2018-09-19T04:37:59.271Z,14.00
2018-09-19T04:38:59.271Z,17.40
2018-09-19T04:39:59.191Z,14.20
2018-09-19T04:40:59.147Z,18.70
2018-09-19T04:41:59.097Z,18.30
2018-09-19T04:42:59.055Z,19.50
2018-09-19T04:43:59.010Z,17.30
2018-09-19T04:44:59.008Z,18.80
2018-09-19T04:45:58.920Z,14.00
2018-09-19T04:46:58.887Z,19.40
2018-09-19T04:47:58.834Z,16.10
2018-09-19T04:48:58.801Z,17.10
2018-09-19T04:49:58.751Z,19.00
2018-09-19T04:50:58.700Z,14.40
2018-09-19T04:51:58.658Z,20.50
2018-09-19T04:52:58.624Z,17.10
2018-09-19T04:53:58.577Z,15.70
2018-09-19T04:54:58.532Z,18.90
2018-09-19T04:55:58.490Z,19.00
2018-09-19T04:56:58.443Z,17.70
2018-09-19T04:57:58.398Z,15.80
2018-09-19T04:58:58.356Z,17.50
2018-09-19T04:59:58.306Z,16.70
2018-09-19T05:00:58.280Z,17.70
2018-09-19T05:01:58.222Z,14.90
2018-09-19T05:02:58.174Z,15.50
2018-09-19T05:03:58.134Z,15.10
2018-09-19T05:04:58.085Z,14.90
2018-09-19T05:05:58.044Z,16.00
2018-09-19T05:06:58.004Z,16.40
2018-09-19T05:07:57.953Z,17.30
2018-09-19T05:08:57.909Z,17.60
2018-09-19T05:09:57.870Z,17.00
2018-09-19T05:10:57.828Z,15.00
2018-09-19T05:11:57.778Z,17.10
2018-09-19T05:12:57.737Z,18.80
2018-09-19T05:13:57.690Z,16.80
2018-09-19T05:14:57.645Z,20.90
2018-09-19T05:15:57.621Z,19.70
2018-09-19T05:16:57.558Z,19.00
2018-09-19T05:17:57.518Z,18.00
2018-09-19T05:18:57.470Z,17.90
2018-09-19T05:19:57.426Z,16.40
2018-09-19T05:20:57.386Z,15.80
2018-09-19T05:21:57.336Z,20.40
2018-09-19T05:22:57.296Z,18.30
2018-09-19T05:23:57.250Z,15.10
2018-09-19T05:24:57.208Z,17.30
2018-09-19T05:25:57.164Z,16.90
2018-09-19T05:26:57.118Z,18.80
2018-09-19T05:27:57.080Z,20.70
2018-09-19T05:28:57.043Z,20.30
2018-09-19T05:29:56.985Z,16.70
2018-09-19T05:30:56.945Z,17.10
2018-09-19T05:31:56.903Z,18.90
2018-09-19T05:32:56.857Z,17.50
2018-09-19T05:33:56.808Z,14.20
2018-09-19T05:34:56.768Z,15.90
2018-09-19T05:35:56.730Z,19.60
2018-09-19T05:36:56.679Z,18.00
2018-09-19T05:37:56.636Z,19.20
2018-09-19T05:38:56.590Z,16.20
2018-09-19T05:39:56.547Z,16.20
2018-09-19T05:40:56.503Z,16.60
2018-09-19T05:41:56.461Z,14.10
2018-09-19T05:42:56.412Z,17.40
2018-09-19T05:43:56.369Z,19.30
2018-09-19T05:44:56.325Z,22.80
2018-09-19T05:45:56.281Z,22.70
2018-09-19T05:46:56.241Z,21.80
2018-09-19T05:47:56.201Z,18.30
2018-09-19T05:48:56.149Z,17.20
2018-09-19T05:49:56.108Z,16.90
2018-09-19T05:50:56.066Z,17.50
2018-09-19T05:51:56.016Z,17.60
2018-09-19T05:52:55.981Z,16.30
2018-09-19T05:53:55.936Z,16.80
2018-09-19T05:54:55.891Z,16.80
2018-09-19T05:55:55.844Z,16.00
2018-09-19T05:56:55.811Z,22.70
2018-09-19T05:57:55.752Z,18.70
2018-09-19T05:58:55.712Z,20.00
2018-09-19T05:59:55.669Z,20.70
2018-09-19T06:00:55.625Z,20.10
2018-09-19T06:01:55.577Z,18.60
2018-09-19T06:02:55.545Z,19.00
2018-09-19T06:03:55.492Z,20.20
2018-09-19T06:04:55.534Z,19.60
2018-09-19T06:05:55.405Z,16.80
2018-09-19T06:06:55.364Z,18.80
2018-09-19T06:07:55.315Z,23.50
2018-09-19T06:08:55.276Z,22.90
2018-09-19T06:09:55.228Z,18.60
2018-09-19T06:10:55.191Z,18.30
2018-09-19T06:11:55.142Z,23.60
2018-09-19T06:12:55.135Z,19.40
2018-09-19T06:13:55.055Z,18.40
2018-09-19T06:14:55.034Z,21.30
2018-09-19T06:15:54.966Z,19.90
2018-09-19T06:16:54.921Z,24.00
2018-09-19T06:17:54.876Z,20.10
2018-09-19T06:18:54.832Z,22.10
2018-09-19T06:19:54.789Z,16.60
2018-09-19T06:20:54.749Z,18.40
2018-09-19T06:21:54.703Z,18.50
2018-09-19T06:22:54.657Z,20.60
2018-09-19T06:23:54.622Z,18.70
2018-09-19T06:24:54.573Z,21.30
2018-09-19T06:25:54.525Z,19.40
2018-09-19T06:26:54.513Z,17.90
2018-09-19T06:27:54.439Z,16.10
2018-09-19T06:28:54.395Z,20.70
2018-09-19T06:29:54.354Z,19.70
2018-09-19T06:30:54.317Z,16.40
2018-09-19T06:31:54.267Z,17.90
2018-09-19T06:32:54.265Z,16.70
2018-09-19T06:33:54.181Z,16.60
2018-09-19T06:34:54.139Z,16.60
2018-09-19T06:35:54.100Z,17.20
2018-09-19T06:36:54.101Z,16.90
2018-09-19T06:37:54.006Z,17.90
2018-09-19T06:38:53.962Z,19.00
2018-09-19T06:39:53.988Z,22.50
2018-09-19T06:40:53.974Z,19.50
2018-09-19T06:41:53.833Z,17.50
2018-09-19T06:42:53.789Z,18.80
2018-09-19T06:43:53.747Z,17.50
2018-09-19T06:44:53.701Z,17.00
2018-09-19T06:45:53.659Z,18.30
2018-09-19T06:46:53.682Z,18.30
2018-09-19T06:47:53.577Z,17.50
2018-09-19T06:48:53.530Z,21.20
2018-09-19T06:49:53.489Z,17.30
2018-09-19T06:50:53.446Z,18.00
2018-09-19T06:51:53.428Z,16.50
2018-09-19T06:52:53.361Z,19.60
2018-09-19T06:53:53.318Z,17.30
2018-09-19T06:54:53.277Z,15.30
2018-09-19T06:55:53.236Z,19.10
2018-09-19T06:56:53.186Z,16.60
2018-09-19T06:57:53.143Z,15.60
2018-09-19T06:58:53.104Z,23.40
2018-09-19T06:59:53.130Z,21.50
2018-09-19T07:00:53.019Z,17.90
2018-09-19T07:01:52.983Z,16.20
2018-09-19T07:02:52.930Z,17.10
2018-09-19T07:03:52.890Z,15.70
2018-09-19T07:04:52.849Z,17.90
2018-09-19T07:05:52.834Z,15.50
2018-09-19T07:06:52.784Z,18.20
2018-09-19T07:07:52.726Z,17.90
2018-09-19T07:08:52.685Z,16.50
2018-09-19T07:09:52.636Z,16.00
2018-09-19T07:10:52.603Z,13.60
2018-09-19T07:11:52.553Z,15.30
2018-09-19T07:12:52.511Z,17.20
2018-09-19T07:13:52.474Z,13.70
2018-09-19T07:14:52.430Z,14.90
2018-09-19T07:15:52.386Z,13.20
2018-09-19T07:16:52.344Z,13.80
2018-09-19T07:17:52.310Z,11.50
2018-09-19T07:18:52.328Z,13.80
2018-09-19T07:19:52.222Z,14.00
2018-09-19T07:20:52.182Z,17.40
2018-09-19T07:21:52.141Z,15.00
2018-09-19T07:22:52.097Z,14.90
2018-09-19T07:23:52.102Z,15.20
2018-09-19T07:24:52.014Z,13.60
2018-09-19T07:25:52.004Z,13.10
2018-09-19T07:26:51.931Z,18.30
2018-09-19T07:27:51.895Z,13.30
2018-09-19T07:28:51.849Z,13.70
2018-09-19T07:29:51.825Z,12.30
2018-09-19T07:30:51.815Z,11.20
2018-09-19T07:31:51.726Z,12.60
2018-09-19T07:32:51.690Z,14.20
2018-09-19T07:33:51.641Z,13.50
2018-09-19T07:34:51.600Z,13.20
2018-09-19T07:35:51.563Z,14.30
2018-09-19T07:36:51.527Z,12.70
2018-09-19T07:37:51.478Z,15.80
2018-09-19T07:38:51.468Z,12.70
2018-09-19T07:39:51.408Z,13.30
2018-09-19T07:40:51.356Z,15.70
2018-09-19T07:41:51.314Z,15.40
2018-09-19T07:42:51.279Z,12.30
2018-09-19T07:43:51.236Z,13.00
2018-09-19T07:44:51.192Z,14.30
2018-09-19T07:45:51.162Z,12.70
2018-09-19T07:46:51.114Z,13.30
2018-09-19T07:47:51.081Z,20.60
2018-09-19T07:48:51.032Z,15.80
2018-09-19T07:49:51.015Z,14.50
2018-09-19T07:50:50.949Z,13.20
2018-09-19T07:51:50.939Z,12.60
2018-09-19T07:52:50.871Z,13.00
2018-09-19T07:53:50.829Z,14.70
2018-09-19T07:54:50.788Z,15.40
2018-09-19T07:55:50.774Z,14.60
2018-09-19T07:56:50.735Z,12.10
2018-09-19T07:57:50.667Z,11.20
2018-09-19T07:58:50.628Z,13.30
2018-09-19T07:59:50.601Z,12.50
2018-09-19T08:00:50.768Z,15.50
2018-09-19T08:01:50.510Z,13.30
2018-09-19T08:02:50.481Z,13.90
2018-09-19T08:03:50.430Z,13.20
2018-09-19T08:04:50.393Z,14.60
2018-09-19T08:05:50.354Z,12.00
2018-09-19T08:06:50.311Z,13.80
2018-09-19T08:07:50.323Z,10.90
2018-09-19T08:08:50.239Z,12.70
2018-09-19T08:09:50.211Z,12.80
2018-09-19T08:10:50.153Z,17.40
2018-09-19T08:11:50.149Z,17.30
2018-09-19T08:12:50.072Z,16.40
2018-09-19T08:13:50.030Z,14.80
2018-09-19T08:14:49.994Z,17.20
2018-09-19T08:15:49.995Z,10.40
2018-09-19T08:16:49.936Z,14.80
2018-09-19T08:17:49.874Z,13.40
2018-09-19T08:18:49.897Z,16.90
2018-09-19T08:19:49.792Z,11.10
2018-09-19T08:20:49.764Z,11.40
2018-09-19T08:21:49.713Z,11.70
2018-09-19T08:22:49.768Z,13.10
2018-09-19T08:23:49.634Z,14.00
2018-09-19T08:24:49.598Z,9.90
2018-09-19T08:25:49.560Z,13.60
2018-09-19T08:26:49.521Z,10.20
2018-09-19T08:27:49.499Z,11.80
2018-09-19T08:28:49.443Z,12.50
2018-09-19T08:29:49.400Z,14.50
2018-09-19T08:30:49.362Z,10.80
2018-09-19T08:31:49.332Z,11.70
2018-09-19T08:32:49.289Z,13.10
2018-09-19T08:33:49.249Z,11.10
2018-09-19T08:34:49.213Z,9.80
2018-09-19T08:35:49.170Z,12.80
2018-09-19T08:36:49.130Z,11.90
2018-09-19T08:37:49.095Z,13.40
2018-09-19T08:38:49.052Z,12.90
2018-09-19T08:39:49.028Z,10.30
2018-09-19T08:40:48.983Z,12.10
2018-09-19T08:41:48.936Z,10.40
2018-09-19T08:42:48.907Z,13.30
2018-09-19T08:43:48.864Z,11.70
2018-09-19T08:44:48.824Z,10.00
2018-09-19T08:45:48.786Z,10.80
2018-09-19T08:46:48.749Z,11.30
2018-09-19T08:47:48.711Z,12.10
2018-09-19T08:48:48.670Z,11.80
2018-09-19T08:49:48.630Z,9.90
2018-09-19T08:50:48.689Z,13.60
2018-09-19T08:51:48.565Z,13.10
2018-09-19T08:52:48.518Z,11.70
2018-09-19T08:53:48.541Z,12.10
2018-09-19T08:54:48.439Z,11.40
2018-09-19T08:55:48.402Z,11.20
2018-09-19T08:56:48.368Z,11.30
2018-09-19T08:57:48.323Z,11.80
2018-09-19T08:58:48.291Z,11.00
2018-09-19T08:59:48.249Z,11.60
2018-09-19T09:00:48.211Z,13.90
2018-09-19T09:01:48.169Z,13.60
2018-09-19T09:02:48.139Z,9.90
2018-09-19T09:03:48.099Z,12.80
2018-09-19T09:04:48.062Z,39.10
2018-09-19T09:05:48.027Z,13.50
2018-09-19T09:06:47.978Z,17.00
2018-09-19T09:07:47.941Z,13.00
2018-09-19T09:08:47.907Z,21.20
2018-09-19T09:09:47.866Z,11.80
2018-09-19T09:10:47.827Z,11.40
2018-09-19T09:11:47.790Z,14.40
2018-09-19T09:12:47.946Z,12.90
2018-09-19T09:13:47.715Z,10.60
2018-09-19T09:14:47.673Z,12.50
2018-09-19T09:15:47.639Z,13.90
2018-09-19T09:16:47.597Z,15.10
2018-09-19T09:17:47.560Z,13.70
2018-09-19T09:18:47.524Z,11.90
2018-09-19T09:19:47.521Z,10.80
2018-09-19T09:20:47.446Z,11.60
2018-09-19T09:21:47.411Z,11.60
2018-09-19T09:22:47.373Z,13.20
2018-09-19T09:23:47.335Z,12.10
2018-09-19T09:24:47.292Z,12.90
2018-09-19T09:25:47.256Z,15.40
2018-09-19T09:26:47.251Z,13.70
2018-09-19T09:27:47.182Z,11.00
2018-09-19T09:28:47.144Z,12.00
2018-09-19T09:29:47.112Z,14.00
2018-09-19T09:30:47.068Z,12.40
2018-09-19T09:31:47.035Z,11.10
2018-09-19T09:32:46.992Z,12.60
2018-09-19T09:33:46.957Z,9.60
2018-09-19T09:34:46.923Z,14.10
2018-09-19T09:35:46.879Z,10.20
2018-09-19T09:36:46.878Z,9.40
2018-09-19T09:37:46.801Z,9.00
2018-09-19T09:38:46.763Z,10.70
2018-09-19T09:39:46.726Z,12.40
2018-09-19T09:40:48.743Z,11.50
2018-09-19T09:41:46.649Z,12.10
2018-09-19T09:42:46.611Z,13.90
2018-09-19T09:43:46.577Z,9.90
2018-09-19T09:44:46.580Z,11.10
2018-09-19T09:45:46.504Z,13.00
2018-09-19T09:46:46.460Z,10.50
2018-09-19T09:47:46.427Z,9.60
2018-09-19T09:48:46.387Z,15.60
2018-09-19T09:49:46.349Z,12.50
2018-09-19T09:50:46.320Z,14.10
2018-09-19T09:51:46.280Z,11.90
2018-09-19T09:52:46.237Z,12.20
2018-09-19T09:53:46.203Z,12.00
2018-09-19T09:54:46.161Z,12.80
2018-09-19T09:55:46.124Z,8.70
2018-09-19T09:56:46.087Z,11.70
2018-09-19T09:57:46.049Z,15.20
2018-09-19T09:58:46.013Z,13.00
2018-09-19T09:59:45.980Z,10.00
2018-09-19T10:00:45.936Z,14.50
2018-09-19T10:01:45.900Z,9.30
2018-09-19T10:02:45.860Z,12.70
2018-09-19T10:03:45.823Z,10.60
2018-09-19T10:04:45.786Z,12.50
2018-09-19T10:05:45.748Z,12.20
2018-09-19T10:06:45.711Z,14.70
2018-09-19T10:07:45.674Z,13.70
2018-09-19T10:08:45.657Z,13.60
2018-09-19T10:09:45.599Z,13.90
2018-09-19T10:10:45.560Z,18.00
2018-09-19T10:11:45.526Z,15.10
2018-09-19T10:12:45.486Z,12.50
2018-09-19T10:13:45.488Z,11.20
2018-09-19T10:14:45.411Z,12.40
2018-09-19T10:15:45.376Z,12.00
2018-09-19T10:16:45.337Z,16.80
2018-09-19T10:17:45.298Z,12.10
2018-09-19T10:18:45.262Z,10.70
2018-09-19T10:19:45.227Z,11.40
2018-09-19T10:20:45.190Z,12.20
2018-09-19T10:21:45.165Z,12.10
2018-09-19T10:22:45.114Z,10.90
2018-09-19T10:23:45.079Z,11.90
2018-09-19T10:24:45.042Z,13.00
2018-09-19T10:25:45.051Z,12.50
2018-09-19T10:26:44.967Z,12.70
2018-09-19T10:27:44.929Z,10.80
2018-09-19T10:28:44.894Z,12.80
2018-09-19T10:29:44.895Z,14.60
2018-09-19T10:30:44.818Z,9.80
2018-09-19T10:31:44.779Z,11.30
2018-09-19T10:32:44.742Z,12.20
2018-09-19T10:33:44.704Z,13.10
2018-09-19T10:34:44.668Z,14.30
2018-09-19T10:35:44.630Z,13.30
2018-09-19T10:36:44.592Z,11.00
2018-09-19T10:37:44.554Z,11.70
2018-09-19T10:38:44.581Z,13.80
2018-09-19T10:39:44.493Z,11.90
2018-09-19T10:40:44.444Z,12.50
2018-09-19T10:41:49.509Z,14.20
2018-09-19T10:42:44.371Z,7.80
2018-09-19T10:43:44.350Z,10.60
2018-09-19T10:44:44.295Z,7.50
2018-09-19T10:45:44.272Z,12.00
2018-09-19T10:46:44.229Z,9.00
2018-09-19T10:47:44.278Z,14.20
2018-09-19T10:48:44.147Z,11.10
2018-09-19T10:49:44.109Z,8.90
2018-09-19T10:50:44.082Z,10.00
2018-09-19T10:51:44.143Z,7.10
2018-09-19T10:52:43.999Z,10.00
2018-09-19T10:53:43.962Z,9.40
2018-09-19T10:54:43.922Z,8.10
2018-09-19T10:55:43.972Z,8.70
2018-09-19T10:56:43.903Z,9.30
2018-09-19T10:57:43.816Z,9.00
2018-09-19T10:58:43.863Z,9.10
2018-09-19T10:59:43.999Z,9.40
2018-09-19T11:00:43.703Z,7.90
2018-09-19T11:01:43.671Z,9.30
2018-09-19T11:02:43.659Z,7.60
2018-09-19T11:03:43.699Z,8.50
2018-09-19T11:04:43.589Z,9.50
2018-09-19T11:05:43.528Z,7.80
2018-09-19T11:06:43.478Z,8.20
2018-09-19T11:07:43.492Z,9.00
2018-09-19T11:08:43.404Z,8.80
2018-09-19T11:09:43.439Z,8.00
2018-09-19T11:10:43.330Z,10.10
2018-09-19T11:11:43.293Z,10.60
2018-09-19T11:12:43.258Z,10.60
2018-09-19T11:13:43.216Z,9.10
2018-09-19T11:14:43.182Z,8.70
2018-09-19T11:15:43.147Z,10.40
2018-09-19T11:16:43.134Z,9.10
2018-09-19T11:17:43.075Z,9.30
2018-09-19T11:18:43.035Z,9.10
2018-09-19T11:19:42.997Z,11.40
2018-09-19T11:20:42.964Z,8.10
2018-09-19T11:21:43.027Z,8.20
2018-09-19T11:22:42.888Z,7.40
2018-09-19T11:23:42.871Z,9.20
2018-09-19T11:24:42.812Z,7.50
2018-09-19T11:25:42.783Z,8.20
2018-09-19T11:26:42.740Z,9.30
2018-09-19T11:27:42.702Z,7.50
2018-09-19T11:28:42.665Z,8.60
2018-09-19T11:29:42.633Z,7.50
2018-09-19T11:30:42.591Z,10.60
2018-09-19T11:31:42.556Z,8.50
2018-09-19T11:32:42.525Z,11.70
2018-09-19T11:33:42.536Z,8.60
2018-09-19T11:34:42.444Z,9.40
2018-09-19T11:35:42.413Z,8.10
2018-09-19T11:36:42.467Z,8.10
2018-09-19T11:37:42.428Z,7.00
2018-09-19T11:38:42.353Z,8.60
2018-09-19T11:39:42.279Z,9.40
2018-09-19T11:40:42.300Z,7.90
2018-09-19T11:41:42.187Z,11.20
2018-09-19T11:42:42.152Z,8.40
2018-09-19T11:43:42.117Z,6.60
2018-09-19T11:44:42.077Z,6.50
2018-09-19T11:45:42.041Z,9.90
2018-09-19T11:46:42.007Z,9.70
2018-09-19T11:47:41.975Z,8.70
2018-09-19T11:48:41.945Z,9.00
2018-09-19T11:49:41.894Z,8.40
2018-09-19T11:50:41.864Z,9.20
2018-09-19T11:51:41.820Z,6.70
2018-09-19T11:52:41.784Z,7.50
2018-09-19T11:53:41.746Z,8.00
2018-09-19T11:54:41.709Z,8.20
2018-09-19T11:55:41.671Z,7.50
2018-09-19T11:56:41.634Z,6.60
2018-09-19T11:57:41.603Z,5.60
2018-09-19T11:58:41.563Z,13.20
2018-09-19T11:59:41.525Z,8.40
2018-09-19T12:00:41.486Z,8.10
2018-09-19T12:01:41.447Z,9.40
2018-09-19T12:02:41.410Z,5.80
2018-09-19T12:03:41.377Z,7.60
2018-09-19T12:04:41.340Z,8.80
2018-09-19T12:05:41.297Z,8.80
2018-09-19T12:06:41.264Z,7.70
2018-09-19T12:07:41.224Z,9.70
2018-09-19T12:08:41.187Z,6.70
2018-09-19T12:09:41.151Z,5.40
2018-09-19T12:10:41.112Z,8.70
2018-09-19T12:11:41.074Z,8.90
2018-09-19T12:12:41.040Z,8.80
2018-09-19T12:13:41.001Z,9.00
2018-09-19T12:14:40.964Z,9.20
2018-09-19T12:15:40.925Z,6.40
2018-09-19T12:16:40.890Z,7.20
2018-09-19T12:17:40.854Z,6.00
2018-09-19T12:18:40.829Z,6.90
2018-09-19T12:19:40.793Z,7.50
2018-09-19T12:20:40.750Z,9.00
2018-09-19T12:21:40.708Z,11.90
2018-09-19T12:22:40.673Z,7.90
2018-09-19T12:23:40.637Z,8.00
2018-09-19T12:24:40.598Z,6.80
2018-09-19T12:25:40.564Z,10.20
2018-09-19T12:26:40.608Z,6.10
2018-09-19T12:27:40.493Z,9.40
2018-09-19T12:28:40.458Z,10.60
2018-09-19T12:29:40.421Z,9.20
2018-09-19T12:30:40.386Z,7.90
2018-09-19T12:31:40.350Z,8.90
2018-09-19T12:32:40.313Z,10.10
2018-09-19T12:33:40.278Z,9.60
2018-09-19T12:34:40.247Z,6.20
2018-09-19T12:35:40.208Z,7.70
2018-09-19T12:36:40.186Z,8.20
2018-09-19T12:37:40.137Z,6.20
2018-09-19T12:38:40.100Z,8.50
2018-09-19T12:39:40.135Z,7.30
2018-09-19T12:40:40.034Z,6.50
2018-09-19T12:41:39.999Z,7.70
2018-09-19T12:42:39.965Z,8.20
2018-09-19T12:43:39.939Z,10.30
2018-09-19T12:44:39.897Z,8.60
2018-09-19T12:45:39.862Z,7.90
2018-09-19T12:46:39.822Z,6.60
2018-09-19T12:47:39.785Z,9.90
2018-09-19T12:48:39.751Z,8.20
2018-09-19T12:49:39.723Z,7.20
2018-09-19T12:50:39.679Z,7.30
2018-09-19T12:51:39.639Z,6.00
2018-09-19T12:52:39.604Z,10.90
2018-09-19T12:53:39.572Z,7.30
2018-09-19T12:54:39.532Z,6.00
2018-09-19T12:55:39.497Z,6.70